Time;durP1;ratioP1;P1;durP2;ratioP2;P2;SDS_P1;SDS_P2;PMS_P1;PMS_P2;Temp;Humidity;BMP_temperature;BMP_pressure;BME280_temperature;BME280_humidity;BME280_pressure;Samples;Min_cycle;Max_cycle;Signal;HPM_P1;HPM_P2
2023/12/06 00:00:25;;;;;;;20.07;15.53;;;;;;;4.28;99.60;92406.91;5054493;28;20280;-75
2023/12/06 00:02:51;;;;;;;17.70;15.87;;;;;;;4.19;100.00;92407.59;5060259;28;20201;-75
2023/12/06 00:05:16;;;;;;;16.90;15.10;;;;;;;4.10;100.00;92385.81;5059734;28;20236;-77
2023/12/06 00:07:47;;;;;;;16.87;15.37;;;;;;;4.15;99.77;92381.50;5087154;28;20873;-76
2023/12/06 00:10:12;;;;;;;16.63;15.00;;;;;;;3.96;100.00;92398.34;5061929;28;20284;-76
2023/12/06 00:12:38;;;;;;;16.53;14.93;;;;;;;3.85;100.00;92381.19;5064954;28;20186;-75
2023/12/06 00:15:04;;;;;;;16.27;14.70;;;;;;;4.04;100.00;92385.00;5058677;28;20228;-75
2023/12/06 00:17:29;;;;;;;17.33;15.60;;;;;;;4.25;100.00;92398.88;5061345;28;20205;-75
2023/12/06 00:19:54;;;;;;;24.53;18.17;;;;;;;4.20;100.00;92384.09;5066603;28;20240;-74
2023/12/06 00:22:20;;;;;;;20.20;17.80;;;;;;;4.15;100.00;92396.19;5065405;28;20182;-75
2023/12/06 00:24:45;;;;;;;16.40;14.87;;;;;;;4.10;100.00;92399.50;5061660;28;20226;-75
2023/12/06 00:27:11;;;;;;;17.23;15.50;;;;;;;4.00;100.00;92388.31;5058930;28;20198;-75
2023/12/06 00:29:36;;;;;;;59.70;36.03;;;;;;;4.16;100.00;92385.63;5066005;28;20256;-74
2023/12/06 00:32:01;;;;;;;197.63;76.63;;;;;;;4.14;100.00;92387.66;5059361;28;20185;-74
2023/12/06 00:34:27;;;;;;;118.93;54.43;;;;;;;4.22;99.42;92384.63;5054104;28;20256;-75
2023/12/06 00:36:52;;;;;;;60.27;31.57;;;;;;;3.95;99.64;92365.81;5059607;28;20296;-76
2023/12/06 00:39:17;;;;;;;85.60;40.90;;;;;;;3.92;100.00;92381.75;5077329;28;20294;-74
2023/12/06 00:41:43;;;;;;;110.27;53.97;;;;;;;4.02;100.00;92381.88;5066305;28;20197;-75
2023/12/06 00:44:08;;;;;;;42.93;28.93;;;;;;;4.04;100.00;92372.09;5058837;28;20260;-74
2023/12/06 00:46:34;;;;;;;22.77;20.07;;;;;;;4.04;100.00;92372.09;5064895;28;20197;-76
2023/12/06 00:49:00;;;;;;;18.37;15.60;;;;;;;4.00;100.00;92368.41;5061700;28;20221;-74
2023/12/06 00:51:27;;;;;;;21.80;19.60;;;;;;;3.94;100.00;92361.66;5063767;28;20194;-75
2023/12/06 00:53:52;;;;;;;19.17;17.27;;;;;;;3.98;100.00;92360.16;5058977;28;20242;-74
2023/12/06 00:56:18;;;;;;;22.30;19.90;;;;;;;3.94;100.00;92338.41;5066056;28;20193;-74
2023/12/06 00:58:43;;;;;;;24.43;19.93;;;;;;;3.93;100.00;92352.34;5063232;28;20241;-74
2023/12/06 01:01:11;;;;;;;24.30;19.20;;;;;;;3.90;100.00;92347.69;5058443;28;20178;-74
2023/12/06 01:03:37;;;;;;;25.00;20.30;;;;;;;3.82;100.00;92342.16;5064783;28;20225;-74
2023/12/06 01:06:02;;;;;;;73.63;33.37;;;;;;;3.80;100.00;92331.31;5060304;28;20287;-75
2023/12/06 01:08:28;;;;;;;76.87;33.87;;;;;;;3.61;100.00;92351.50;5069763;28;20190;-75
2023/12/06 01:10:53;;;;;;;16.33;14.83;;;;;;;3.24;100.00;92348.00;5070042;28;20204;-75
2023/12/06 01:13:18;;;;;;;16.77;15.37;;;;;;;3.11;100.00;92333.66;5070167;28;20185;-74
2023/12/06 01:15:44;;;;;;;16.63;15.03;;;;;;;3.06;100.00;92340.56;5053769;28;20205;-74
2023/12/06 01:18:09;;;;;;;15.20;13.90;;;;;;;3.62;100.00;92345.34;5065060;28;21142;-77
2023/12/06 01:20:38;;;;;;;16.13;14.90;;;;;;;3.71;100.00;92327.59;5052339;28;20224;-76
2023/12/06 01:23:03;;;;;;;15.13;13.87;;;;;;;3.76;100.00;92319.91;5054700;28;20232;-75
2023/12/06 01:25:29;;;;;;;15.17;13.97;;;;;;;3.79;100.00;92329.75;5090442;28;20218;-74
2023/12/06 01:27:54;;;;;;;15.37;14.10;;;;;;;3.84;100.00;92327.22;5059746;28;20214;-75
2023/12/06 01:30:19;;;;;;;18.30;16.53;;;;;;;3.76;100.00;92330.25;5055702;28;20259;-74
2023/12/06 01:32:45;;;;;;;15.10;13.90;;;;;;;3.82;100.00;92314.56;5061966;28;20219;-74
2023/12/06 01:35:10;;;;;;;16.00;14.60;;;;;;;3.84;100.00;92317.69;5053866;28;20225;-74
2023/12/06 01:37:35;;;;;;;14.60;13.17;;;;;;;3.90;100.00;92324.44;5061547;28;20212;-73
2023/12/06 01:40:01;;;;;;;14.97;13.60;;;;;;;3.91;99.81;92317.47;5071241;28;20229;-74
2023/12/06 01:42:26;;;;;;;15.70;14.40;;;;;;;3.86;100.00;92307.88;5057882;28;20188;-74
2023/12/06 01:44:52;;;;;;;13.43;12.33;;;;;;;3.91;99.80;92302.75;5058334;28;20251;-73
2023/12/06 01:47:19;;;;;;;15.93;14.60;;;;;;;3.96;99.79;92302.00;5054118;28;20285;-73
2023/12/06 01:49:45;;;;;;;14.07;12.80;;;;;;;3.89;100.00;92304.03;5057649;28;20218;-73
2023/12/06 01:52:10;;;;;;;15.60;14.50;;;;;;;3.78;100.00;92298.00;5049710;28;20205;-73
2023/12/06 01:54:36;;;;;;;14.90;13.70;;;;;;;3.74;100.00;92296.94;5059506;28;20285;-73
2023/12/06 01:57:01;;;;;;;13.70;12.60;;;;;;;3.69;100.00;92294.28;5058938;28;20209;-72
2023/12/06 01:59:27;;;;;;;15.87;14.30;;;;;;;3.87;100.00;92286.22;5054656;28;20294;-73
2023/12/06 02:01:53;;;;;;;15.30;14.07;;;;;;;3.82;100.00;92291.31;5060178;28;20285;-74
2023/12/06 02:04:19;;;;;;;15.60;14.37;;;;;;;3.81;99.81;92287.19;5061028;28;20233;-73
2023/12/06 02:06:44;;;;;;;14.83;13.43;;;;;;;3.88;99.58;92287.75;5055766;28;20179;-74
2023/12/06 02:09:12;;;;;;;15.10;13.50;;;;;;;3.72;100.00;92288.63;5057898;28;20226;-74
2023/12/06 02:11:38;;;;;;;14.60;13.37;;;;;;;3.68;100.00;92272.09;5062922;28;20980;-73
2023/12/06 02:14:03;;;;;;;14.87;13.57;;;;;;;3.68;100.00;92277.25;5057352;28;20240;-74
2023/12/06 02:16:30;;;;;;;15.83;14.43;;;;;;;3.60;100.00;92272.53;5068932;28;20213;-74
2023/12/06 02:18:55;;;;;;;15.40;13.93;;;;;;;3.69;100.00;92280.63;5058780;28;20240;-73
2023/12/06 02:21:21;;;;;;;15.70;14.30;;;;;;;3.66;100.00;92263.06;5057309;28;20170;-73
2023/12/06 02:23:49;;;;;;;15.07;13.57;;;;;;;3.64;100.00;92281.38;5056840;28;20268;-76
2023/12/06 02:26:14;;;;;;;16.13;14.50;;;;;;;3.26;100.00;92274.53;5061230;28;20193;-73
2023/12/06 02:28:40;;;;;;;15.90;14.30;;;;;;;3.57;100.00;92274.81;5055288;28;20244;-74
2023/12/06 02:31:05;;;;;;;16.40;14.90;;;;;;;3.73;100.00;92279.09;5052310;28;20177;-73
2023/12/06 02:33:33;;;;;;;15.93;14.53;;;;;;;3.89;100.00;92268.66;5067765;28;20229;-74
2023/12/06 02:36:00;;;;;;;15.80;14.50;;;;;;;3.95;100.00;92262.53;5053922;28;20190;-73
2023/12/06 02:38:27;;;;;;;15.03;13.73;;;;;;;3.98;100.00;92271.56;5095817;28;20170;-73
2023/12/06 02:40:56;;;;;;;15.87;14.70;;;;;;;3.95;100.00;92264.31;5057544;28;20216;-73
2023/12/06 02:43:21;;;;;;;15.97;14.50;;;;;;;3.98;100.00;92264.59;5054596;28;20186;-73
2023/12/06 02:45:47;;;;;;;15.03;13.83;;;;;;;4.17;99.67;92267.59;5087691;28;20228;-73
2023/12/06 02:48:12;;;;;;;14.33;13.13;;;;;;;4.25;99.17;92261.97;5063066;28;20189;-72
2023/12/06 02:50:38;;;;;;;16.30;14.23;;;;;;;3.90;99.98;92243.63;5062101;28;20198;-73
2023/12/06 02:53:03;;;;;;;14.73;13.43;;;;;;;3.92;100.00;92247.50;5061261;28;20193;-73
2023/12/06 02:55:29;;;;;;;16.97;15.47;;;;;;;4.14;99.53;92257.75;5061179;28;20225;-74
2023/12/06 02:57:54;;;;;;;17.23;15.77;;;;;;;4.09;99.44;92245.59;5066597;28;20217;-74
2023/12/06 03:00:19;;;;;;;17.63;15.80;;;;;;;4.15;99.29;92252.34;5057688;28;20221;-73
2023/12/06 03:02:45;;;;;;;16.10;14.63;;;;;;;4.13;99.01;92241.47;5064269;28;20261;-73
2023/12/06 03:05:10;;;;;;;15.27;13.97;;;;;;;4.15;99.56;92241.22;5063618;28;20234;-73
2023/12/06 03:07:36;;;;;;;14.70;13.40;;;;;;;3.75;100.00;92228.03;5051074;28;20242;-75
2023/12/06 03:10:03;;;;;;;15.73;14.13;;;;;;;4.09;99.78;92240.41;5063944;28;20247;-73
2023/12/06 03:12:28;;;;;;;16.73;15.27;;;;;;;4.10;99.71;92234.22;5067282;28;20203;-74
2023/12/06 03:14:53;;;;;;;15.77;14.17;;;;;;;4.13;99.91;92236.31;5072821;28;20233;-74
2023/12/06 03:17:19;;;;;;;16.23;14.63;;;;;;;4.13;99.96;92238.88;5062851;28;20197;-74
2023/12/06 03:19:45;;;;;;;16.87;15.23;;;;;;;4.16;99.43;92238.38;5062842;28;20816;-74
2023/12/06 03:22:11;;;;;;;16.60;15.20;;;;;;;4.10;99.81;92236.81;5054297;28;20185;-74
2023/12/06 03:24:36;;;;;;;17.27;15.90;;;;;;;4.03;99.96;92217.38;5048327;28;20281;-74
2023/12/06 03:27:01;;;;;;;18.07;16.27;;;;;;;4.18;100.00;92230.38;5056940;28;20250;-73
2023/12/06 03:29:27;;;;;;;18.13;16.53;;;;;;;4.09;99.93;92211.22;5051962;28;20226;-74
2023/12/06 03:31:52;;;;;;;18.20;16.43;;;;;;;3.61;100.00;92146.88;5089772;28;20185;-85
2023/12/06 03:34:17;;;;;;;17.30;15.70;;;;;;;4.09;100.00;92224.13;5057309;28;20241;-85
2023/12/06 03:36:43;;;;;;;13.37;12.37;;;;;;;4.11;100.00;92216.94;5065625;28;20205;-84
2023/12/06 03:39:08;;;;;;;12.07;11.37;;;;;;;4.33;99.20;92217.56;5054749;28;20260;-85
2023/12/06 03:41:33;;;;;;;10.93;10.33;;;;;;;4.44;98.56;92206.25;5070885;28;20174;-82
2023/12/06 03:43:59;;;;;;;11.50;10.57;;;;;;;4.57;98.00;92216.13;5053478;28;20226;-82
2023/12/06 03:46:24;;;;;;;12.63;11.67;;;;;;;4.55;97.39;92216.41;5056427;28;20185;-80
2023/12/06 03:48:49;;;;;;;11.77;11.07;;;;;;;4.66;96.91;92215.41;5064892;28;20222;-83
2023/12/06 03:51:15;;;;;;;12.17;11.37;;;;;;;4.66;96.64;92207.66;5075718;28;20200;-85
2023/12/06 03:53:40;;;;;;;11.07;10.47;;;;;;;4.65;96.82;92206.09;5070986;28;20229;-77
2023/12/06 03:56:06;;;;;;;11.63;10.93;;;;;;;4.60;96.97;92206.09;5086048;28;20194;-80
2023/12/06 03:58:31;;;;;;;11.80;11.07;;;;;;;4.88;96.50;92218.63;5065279;28;20259;-77
2023/12/06 04:00:57;;;;;;;12.77;11.97;;;;;;;4.82;96.83;92209.25;5059299;28;20165;-75
2023/12/06 04:03:22;;;;;;;13.87;12.87;;;;;;;4.81;96.66;92202.53;5059612;28;20186;-73
2023/12/06 04:05:47;;;;;;;13.17;12.20;;;;;;;4.87;96.83;92209.28;5058103;28;20228;-73
2023/12/06 04:08:13;;;;;;;13.70;12.53;;;;;;;4.60;97.04;92200.13;5060566;28;20221;-73
2023/12/06 04:10:38;;;;;;;13.97;12.97;;;;;;;4.61;98.13;92217.97;5065944;28;20189;-73
2023/12/06 04:13:07;;;;;;;12.63;11.73;;;;;;;4.82;97.09;92208.50;5064307;28;20186;-73
2023/12/06 04:15:32;;;;;;;13.17;12.20;;;;;;;4.72;97.11;92217.00;5058537;28;20251;-73
2023/12/06 04:17:58;;;;;;;12.87;11.90;;;;;;;4.60;98.05;92211.25;5078534;28;20216;-73
2023/12/06 04:20:23;;;;;;;12.17;11.40;;;;;;;4.43;97.95;92220.19;5060543;28;20218;-73
2023/12/06 04:22:49;;;;;;;12.30;11.40;;;;;;;4.60;97.81;92215.63;5068518;28;20190;-73
2023/12/06 04:25:15;;;;;;;12.57;11.73;;;;;;;4.74;97.70;92214.16;5061426;28;20218;-73
2023/12/06 04:27:40;;;;;;;13.23;12.10;;;;;;;4.79;97.37;92202.00;5063540;28;20182;-73
2023/12/06 04:30:06;;;;;;;13.27;12.47;;;;;;;4.79;97.65;92219.34;5058673;28;20222;-73
2023/12/06 04:32:31;;;;;;;13.03;12.13;;;;;;;4.77;97.72;92219.59;5060438;28;20189;-73
2023/12/06 04:34:57;;;;;;;12.57;11.83;;;;;;;4.32;99.22;92201.28;5055189;28;20213;-73
2023/12/06 04:37:23;;;;;;;13.30;12.43;;;;;;;4.63;98.99;92210.75;5057722;28;20277;-73
2023/12/06 04:39:48;;;;;;;13.37;12.27;;;;;;;4.77;98.47;92208.47;5057138;28;20234;-72
2023/12/06 04:42:14;;;;;;;13.27;12.17;;;;;;;4.58;99.26;92205.56;5059954;28;20206;-73
2023/12/06 04:44:40;;;;;;;13.63;12.73;;;;;;;4.67;99.29;92211.78;5055928;28;20222;-73
2023/12/06 04:47:05;;;;;;;12.80;11.80;;;;;;;4.84;98.79;92221.97;5065380;28;20189;-73
2023/12/06 04:49:31;;;;;;;12.20;11.30;;;;;;;4.81;99.22;92218.06;5062945;28;20782;-86
2023/12/06 04:51:57;;;;;;;13.17;12.20;;;;;;;4.78;98.79;92207.44;5070203;28;20188;-84
2023/12/06 04:54:24;;;;;;;12.00;11.17;;;;;;;4.82;98.74;92219.59;5063988;28;20221;-79
2023/12/06 04:56:50;;;;;;;12.50;11.50;;;;;;;4.80;99.85;92213.13;5052120;28;20213;-86
2023/12/06 04:59:15;;;;;;;12.50;11.60;;;;;;;4.68;100.00;92208.19;5066384;28;20226;-81
2023/12/06 05:01:41;;;;;;;11.97;11.27;;;;;;;4.66;99.37;92181.03;5102223;28;20189;-84
2023/12/06 05:04:06;;;;;;;13.80;12.80;;;;;;;4.88;100.00;92223.78;5068358;28;20301;-86
2023/12/06 05:06:32;;;;;;;11.77;10.90;;;;;;;4.80;100.00;92215.72;5059900;28;20255;-90
2023/12/06 05:08:57;;;;;;;12.07;11.37;;;;;;;4.52;100.00;92216.09;5062564;28;20237;-90
2023/12/06 05:11:22;;;;;;;12.67;11.67;;;;;;;4.83;100.00;92218.59;5072551;28;20178;-86
2023/12/06 05:13:49;;;;;;;12.97;12.13;;;;;;;5.01;100.00;92214.00;5064059;28;20229;-81
2023/12/06 05:16:15;;;;;;;11.70;11.00;;;;;;;4.86;100.00;92218.06;5059051;28;20174;-82
2023/12/06 05:18:40;;;;;;;12.53;11.70;;;;;;;4.65;100.00;92206.09;5066185;28;20221;-79
2023/12/06 05:21:05;;;;;;;11.57;10.87;;;;;;;4.96;100.00;92212.91;5058709;28;20194;-75
2023/12/06 05:23:31;;;;;;;12.67;11.90;;;;;;;5.15;100.00;92209.88;5062548;28;20875;-77
2023/12/06 05:25:56;;;;;;;12.53;11.47;;;;;;;5.29;100.00;92218.72;5067622;28;20675;-77
2023/12/06 05:28:21;;;;;;;12.07;11.30;;;;;;;5.42;100.00;92210.44;5072702;28;20185;-86
2023/12/06 05:30:47;;;;;;;11.93;10.93;;;;;;;5.29;100.00;92198.81;5066981;28;20201;-78
2023/12/06 05:33:12;;;;;;;12.80;11.63;;;;;;;5.32;100.00;92211.22;5069419;28;20257;-72
2023/12/06 05:35:38;;;;;;;13.00;12.10;;;;;;;5.28;100.00;92209.38;5069348;28;20194;-75
2023/12/06 05:38:03;;;;;;;12.10;11.10;;;;;;;5.38;100.00;92230.91;5069995;28;20270;-73
2023/12/06 05:40:29;;;;;;;14.67;13.47;;;;;;;5.54;100.00;92229.13;5059917;28;20218;-73
2023/12/06 05:42:54;;;;;;;12.67;11.77;;;;;;;5.57;100.00;92226.78;5062285;28;20196;-72
2023/12/06 05:45:19;;;;;;;12.37;11.47;;;;;;;5.20;100.00;92217.66;5063482;28;20222;-72
2023/12/06 05:47:45;;;;;;;12.57;11.67;;;;;;;5.38;100.00;92223.16;5067211;28;20241;-72
2023/12/06 05:50:11;;;;;;;14.27;13.27;;;;;;;5.57;100.00;92223.44;5058786;28;20230;-73
2023/12/06 05:52:37;;;;;;;14.33;13.13;;;;;;;5.54;100.00;92223.94;5063712;28;20178;-72
2023/12/06 05:55:03;;;;;;;13.13;11.70;;;;;;;5.45;100.00;92225.50;5061005;28;20236;-72
2023/12/06 05:57:29;;;;;;;14.13;13.03;;;;;;;5.47;100.00;92218.22;5062841;28;20713;-72
2023/12/06 05:59:55;;;;;;;15.33;14.03;;;;;;;5.61;100.00;92227.84;5067593;28;20225;-72
2023/12/06 06:02:20;;;;;;;14.80;13.60;;;;;;;5.60;100.00;92228.09;5060113;28;20184;-72
2023/12/06 06:04:45;;;;;;;12.87;11.87;;;;;;;5.63;100.00;92230.16;5060231;28;20230;-72
2023/12/06 06:07:10;;;;;;;13.70;12.70;;;;;;;5.71;100.00;92235.59;5061619;28;20181;-73
2023/12/06 06:09:36;;;;;;;16.27;12.73;;;;;;;5.76;100.00;92234.84;5059540;28;20228;-73
2023/12/06 06:12:02;;;;;;;14.07;12.87;;;;;;;5.78;100.00;92240.53;5063105;28;20185;-72
2023/12/06 06:14:29;;;;;;;13.90;12.67;;;;;;;5.79;100.00;92244.69;5055281;28;20862;-73
2023/12/06 06:16:54;;;;;;;12.83;11.93;;;;;;;5.74;100.00;92235.09;5094654;28;20221;-73
2023/12/06 06:19:19;;;;;;;13.93;12.73;;;;;;;5.85;100.00;92241.84;5056579;28;20779;-73
2023/12/06 06:21:45;;;;;;;15.00;13.70;;;;;;;5.99;100.00;92242.88;5063662;28;20193;-72
2023/12/06 06:24:10;;;;;;;14.53;13.17;;;;;;;5.95;100.00;92243.66;5060005;28;20316;-72
2023/12/06 06:26:35;;;;;;;14.07;12.90;;;;;;;5.73;100.00;92199.88;5063437;28;20204;-72
2023/12/06 06:29:01;;;;;;;13.83;12.47;;;;;;;5.87;100.00;92228.66;5065050;28;20221;-73
2023/12/06 06:31:26;;;;;;;13.93;12.73;;;;;;;5.95;100.00;92233.31;5066326;28;20189;-73
2023/12/06 06:33:52;;;;;;;13.03;12.03;;;;;;;6.06;100.00;92240.84;5062889;28;20273;-72
2023/12/06 06:36:17;;;;;;;15.07;13.73;;;;;;;6.08;100.00;92230.22;5066434;28;20181;-73
2023/12/06 06:38:43;;;;;;;14.07;12.77;;;;;;;5.99;100.00;92235.13;5062499;28;20224;-72
2023/12/06 06:41:08;;;;;;;17.40;15.33;;;;;;;5.74;100.00;92229.16;5064350;28;20207;-73
2023/12/06 06:43:34;;;;;;;15.30;14.00;;;;;;;5.82;100.00;92221.66;5058464;28;20230;-74
2023/12/06 06:46:00;;;;;;;14.57;13.37;;;;;;;5.77;100.00;92213.09;5059172;28;20193;-73
2023/12/06 06:48:26;;;;;;;13.17;12.17;;;;;;;5.91;100.00;92224.50;5054658;28;20204;-73
2023/12/06 06:50:52;;;;;;;13.30;12.20;;;;;;;5.94;100.00;92229.97;5059139;28;20205;-74
2023/12/06 06:53:17;;;;;;;13.10;12.10;;;;;;;5.79;100.00;92231.75;5092542;28;20211;-74
2023/12/06 06:55:44;;;;;;;15.23;14.03;;;;;;;5.84;100.00;92226.56;5062780;28;20202;-73
2023/12/06 06:58:09;;;;;;;14.70;13.53;;;;;;;5.81;100.00;92214.91;5060451;28;20278;-74
2023/12/06 07:00:35;;;;;;;15.60;13.43;;;;;;;5.91;100.00;92224.50;5059223;28;20213;-73
2023/12/06 07:03:01;;;;;;;13.67;12.47;;;;;;;5.92;100.00;92226.06;5068470;28;20181;-74
2023/12/06 07:05:26;;;;;;;14.87;13.77;;;;;;;5.56;100.00;92199.34;5067477;28;20313;-73
2023/12/06 07:07:51;;;;;;;15.27;13.70;;;;;;;5.55;100.00;92205.56;5064049;28;20185;-74
2023/12/06 07:10:17;;;;;;;14.50;13.43;;;;;;;5.60;100.00;92233.28;5056566;28;20210;-74
2023/12/06 07:12:42;;;;;;;15.83;14.47;;;;;;;5.34;100.00;92198.78;5057491;28;20216;-73
2023/12/06 07:15:14;;;;;;;14.97;13.67;;;;;;;5.46;100.00;92224.44;5060377;28;20274;-74
2023/12/06 07:17:44;;;;;;;17.20;15.33;;;;;;;5.68;100.00;92230.19;5067817;28;20209;-73
2023/12/06 07:20:13;;;;;;;15.33;13.77;;;;;;;5.72;100.00;92226.81;5057337;28;20236;-74
2023/12/06 07:22:39;;;;;;;16.07;14.03;;;;;;;5.90;100.00;92228.91;5052955;28;20177;-74
2023/12/06 07:25:05;;;;;;;15.70;14.30;;;;;;;5.99;100.00;92242.13;5059006;28;20235;-73
2023/12/06 07:27:31;;;;;;;15.47;14.17;;;;;;;5.99;100.00;92240.31;5060780;28;20180;-74
2023/12/06 07:29:56;;;;;;;15.40;13.83;;;;;;;5.94;100.00;92231.75;5060274;28;20226;-74
2023/12/06 07:32:22;;;;;;;17.70;15.90;;;;;;;6.13;100.00;92238.75;5064135;28;20695;-73
2023/12/06 07:34:47;;;;;;;16.80;15.03;;;;;;;6.14;100.00;92244.72;5057354;28;20225;-74
2023/12/06 07:37:13;;;;;;;16.43;14.60;;;;;;;6.10;100.00;92239.25;5062945;28;20264;-74
2023/12/06 07:39:38;;;;;;;16.27;14.77;;;;;;;6.22;100.00;92257.16;5051770;28;21053;-73
2023/12/06 07:42:04;;;;;;;15.67;14.23;;;;;;;6.04;100.00;92239.53;5061353;28;20197;-73
2023/12/06 07:44:29;;;;;;;16.33;13.27;;;;;;;6.26;100.00;92253.00;5087010;28;20216;-73
2023/12/06 07:46:54;;;;;;;14.93;13.67;;;;;;;6.34;100.00;92252.47;5053843;28;20198;-73
2023/12/06 07:49:20;;;;;;;15.80;14.30;;;;;;;6.43;100.00;92253.50;5052979;28;20230;-74
2023/12/06 07:51:45;;;;;;;15.67;14.33;;;;;;;6.48;100.00;92250.91;5061461;28;20197;-73
2023/12/06 07:54:11;;;;;;;16.03;14.57;;;;;;;6.38;100.00;92243.16;5059279;28;20225;-73
2023/12/06 07:56:36;;;;;;;14.93;13.53;;;;;;;6.39;100.00;92247.28;5067496;28;20201;-73
2023/12/06 07:59:02;;;;;;;15.87;14.47;;;;;;;6.41;100.00;92250.41;5064055;28;20221;-73
2023/12/06 08:04:12;;;;;;;18.67;14.83;;;;;;;6.52;100.00;92247.50;5057589;28;20275;-73
2023/12/06 08:06:37;;;;;;;15.93;14.50;;;;;;;6.48;100.00;92248.31;5056460;28;20197;-73
2023/12/06 08:09:10;;;;;;;17.07;15.40;;;;;;;6.65;100.00;92241.00;5055236;28;20217;-73
2023/12/06 08:11:36;;;;;;;17.30;14.87;;;;;;;6.65;100.00;92246.19;5061739;28;20208;-73
2023/12/06 08:14:02;;;;;;;14.33;13.13;;;;;;;6.53;100.00;92243.91;5056876;28;20225;-73
2023/12/06 08:16:27;;;;;;;15.63;14.13;;;;;;;6.60;100.00;92243.59;5061759;28;20208;-73
2023/12/06 08:18:53;;;;;;;15.80;14.43;;;;;;;6.45;100.00;92252.19;5066511;28;20217;-73
2023/12/06 08:21:18;;;;;;;16.90;15.43;;;;;;;6.41;100.00;92251.16;5059203;28;20224;-73
2023/12/06 08:23:44;;;;;;;16.10;14.80;;;;;;;6.44;100.00;92252.47;5048996;28;20226;-73
2023/12/06 08:26:10;;;;;;;17.33;15.60;;;;;;;6.33;100.00;92250.94;5062170;28;20192;-73
2023/12/06 08:28:36;;;;;;;23.90;19.97;;;;;;;6.30;100.00;92238.50;5067004;28;20221;-73
2023/12/06 08:31:02;;;;;;;32.73;20.97;;;;;;;6.25;100.00;92251.44;5064981;28;20199;-73
2023/12/06 08:33:28;;;;;;;35.50;22.77;;;;;;;6.29;100.00;92249.88;5060110;28;20184;-73
2023/12/06 08:35:53;;;;;;;22.60;18.57;;;;;;;6.34;100.00;92244.69;5061793;28;20242;-73
2023/12/06 08:38:19;;;;;;;17.00;15.30;;;;;;;6.25;100.00;92251.44;5084579;28;20218;-74
2023/12/06 08:40:44;;;;;;;17.83;16.20;;;;;;;6.24;100.00;92247.31;5067267;28;20220;-74
2023/12/06 08:43:09;;;;;;;16.93;15.37;;;;;;;6.04;100.00;92240.31;5068513;28;20192;-74
2023/12/06 08:45:35;;;;;;;16.20;14.63;;;;;;;6.14;100.00;92235.13;5065721;28;20225;-74
2023/12/06 08:48:00;;;;;;;16.07;14.47;;;;;;;6.35;100.00;92235.91;5061025;28;20193;-74
2023/12/06 08:50:25;;;;;;;15.93;14.53;;;;;;;6.22;100.00;92241.59;5065287;28;20212;-72
2023/12/06 08:52:51;;;;;;;16.70;15.07;;;;;;;6.23;100.00;92237.97;5064558;28;20190;-72
2023/12/06 08:55:16;;;;;;;16.60;15.00;;;;;;;6.27;100.00;92229.41;5070372;28;20225;-74
2023/12/06 08:57:43;;;;;;;16.67;15.10;;;;;;;6.28;100.00;92236.16;5063634;28;20274;-74
2023/12/06 09:00:11;;;;;;;18.07;16.47;;;;;;;6.38;100.00;92217.22;5064179;28;20217;-74
2023/12/06 09:02:42;;;;;;;16.80;15.10;;;;;;;6.36;100.00;92232.25;5071047;28;20190;-72
2023/12/06 09:05:10;;;;;;;17.87;15.60;;;;;;;6.36;100.00;92227.84;5058418;28;20225;-72
2023/12/06 09:07:35;;;;;;;16.00;14.47;;;;;;;6.42;100.00;92228.59;5065797;28;20197;-72
2023/12/06 09:10:00;;;;;;;19.17;17.00;;;;;;;6.50;100.00;92222.91;5055766;28;20233;-72
2023/12/06 09:12:26;;;;;;;21.27;17.97;;;;;;;6.56;100.00;92216.66;5065776;28;20181;-72
2023/12/06 09:14:51;;;;;;;18.73;16.93;;;;;;;6.45;100.00;92215.91;5062385;28;20289;-72
2023/12/06 09:17:17;;;;;;;19.87;17.43;;;;;;;6.27;100.00;92189.75;5065658;28;20210;-77
2023/12/06 09:19:42;;;;;;;18.27;16.40;;;;;;;6.43;100.00;92201.63;5060761;28;20224;-77
2023/12/06 09:22:07;;;;;;;19.67;17.77;;;;;;;6.42;100.00;92210.47;5063053;28;20190;-76
2023/12/06 09:24:33;;;;;;;19.50;17.50;;;;;;;6.50;100.00;92207.34;5051456;28;20222;-76
2023/12/06 09:26:58;;;;;;;19.80;16.93;;;;;;;6.43;100.00;92202.41;5051746;28;20182;-77
2023/12/06 09:29:25;;;;;;;18.67;16.73;;;;;;;6.50;100.00;92192.56;5051062;28;20218;-77
2023/12/06 09:31:50;;;;;;;16.70;15.20;;;;;;;6.66;100.00;92190.69;5078794;28;20203;-77
2023/12/06 09:34:15;;;;;;;14.93;13.60;;;;;;;6.41;100.00;92141.50;5056118;28;20249;-76
2023/12/06 09:36:41;;;;;;;15.77;14.37;;;;;;;6.68;100.00;92193.03;5064204;28;20221;-76
2023/12/06 09:39:06;;;;;;;15.07;13.97;;;;;;;6.68;100.00;92186.00;5053543;28;20226;-77
2023/12/06 09:41:33;;;;;;;16.50;14.97;;;;;;;6.67;100.00;92192.25;5061330;28;20189;-77
2023/12/06 09:44:00;;;;;;;15.00;13.70;;;;;;;6.75;100.00;92193.50;5055786;28;20217;-76
2023/12/06 09:46:26;;;;;;;17.17;15.50;;;;;;;6.59;100.00;92169.44;5054094;28;20195;-76
2023/12/06 09:48:52;;;;;;;17.07;15.47;;;;;;;6.91;100.00;92182.81;5062839;28;20281;-76
2023/12/06 09:51:20;;;;;;;16.13;14.80;;;;;;;6.98;100.00;92188.50;5066427;28;20260;-76
2023/12/06 09:53:46;;;;;;;14.47;13.37;;;;;;;6.79;100.00;92156.41;5064683;28;20228;-76
2023/12/06 09:56:13;;;;;;;14.77;13.67;;;;;;;6.81;100.00;92185.44;5087809;28;20183;-77
2023/12/06 09:58:57;;;;;;;14.90;13.70;;;;;;;6.91;100.00;92177.59;5051472;28;20237;-76
2023/12/06 10:01:22;;;;;;;16.60;15.27;;;;;;;6.65;100.00;92165.78;5061191;28;20249;-77
2023/12/06 10:03:48;;;;;;;12.80;11.93;;;;;;;6.77;100.00;92157.72;5068660;28;20244;-77
2023/12/06 10:06:16;;;;;;;15.27;14.17;;;;;;;6.72;100.00;92142.97;5091516;28;20195;-77
2023/12/06 10:08:41;;;;;;;14.13;13.03;;;;;;;6.92;100.00;92170.63;5055931;28;20273;-77
2023/12/06 10:11:08;;;;;;;14.40;13.30;;;;;;;7.09;100.00;92174.44;5069674;28;20190;-77
2023/12/06 10:13:34;;;;;;;14.13;13.03;;;;;;;7.08;100.00;92172.84;5068511;28;20273;-76
2023/12/06 10:16:00;;;;;;;15.13;13.97;;;;;;;7.05;100.00;92168.19;5062701;28;20190;-77
2023/12/06 10:18:26;;;;;;;14.13;13.07;;;;;;;6.96;100.00;92141.25;5065638;28;20219;-77
2023/12/06 10:20:51;;;;;;;12.90;12.07;;;;;;;7.22;100.00;92179.00;5051114;28;20242;-77
2023/12/06 10:23:17;;;;;;;13.23;12.33;;;;;;;7.10;100.00;92172.59;5054087;28;20184;-77
2023/12/06 10:25:44;;;;;;;12.10;11.20;;;;;;;7.18;100.00;92172.03;5066062;28;20205;-78
2023/12/06 10:28:11;;;;;;;13.07;12.17;;;;;;;7.00;100.00;92160.47;5063405;28;20289;-78
2023/12/06 10:30:36;;;;;;;12.63;11.73;;;;;;;6.90;100.00;92150.13;5062562;28;20259;-78
2023/12/06 10:33:04;;;;;;;13.67;12.70;;;;;;;7.11;100.00;92169.75;5063038;28;20250;-77
2023/12/06 10:35:31;;;;;;;10.80;10.20;;;;;;;7.04;100.00;92153.69;5057048;28;20286;-78
2023/12/06 10:37:59;;;;;;;11.87;11.17;;;;;;;7.11;100.00;92159.38;5067984;28;20248;-77
2023/12/06 10:40:26;;;;;;;12.60;11.57;;;;;;;7.24;100.00;92166.56;5064960;28;20224;-77
2023/12/06 10:42:57;;;;;;;11.70;11.03;;;;;;;7.17;100.00;92137.53;5062151;28;20197;-78
2023/12/06 10:45:22;;;;;;;12.13;11.23;;;;;;;7.09;100.00;92121.75;5051836;28;20224;-78
2023/12/06 10:47:49;;;;;;;12.00;11.30;;;;;;;7.15;100.00;92168.16;5064939;28;20185;-78
2023/12/06 10:50:16;;;;;;;11.93;11.07;;;;;;;6.82;100.00;92158.47;5058167;28;20225;-78
2023/12/06 10:52:43;;;;;;;11.63;10.97;;;;;;;6.55;100.00;92130.28;5070052;28;20233;-78
2023/12/06 10:55:10;;;;;;;11.60;10.90;;;;;;;6.75;100.00;92146.81;5060562;28;20217;-78
2023/12/06 10:57:37;;;;;;;12.07;11.37;;;;;;;6.95;100.00;92146.72;5053069;28;20209;-77
2023/12/06 11:00:03;;;;;;;13.47;12.40;;;;;;;6.94;100.00;92148.53;5052577;28;20226;-77
2023/12/06 11:02:29;;;;;;;13.93;12.93;;;;;;;6.88;100.00;92141.81;5062810;28;20193;-77
2023/12/06 11:05:03;;;;;;;14.37;13.27;;;;;;;6.93;100.00;92135.81;5050425;28;20321;-77
2023/12/06 11:07:43;;;;;;;14.20;13.17;;;;;;;7.05;100.00;92120.75;5050997;28;20205;-78
2023/12/06 11:10:18;;;;;;;13.37;12.43;;;;;;;7.20;100.00;92144.78;5060185;28;20251;-79
2023/12/06 11:13:08;;;;;;;13.53;12.67;;;;;;;7.14;100.00;92150.25;5061470;28;20193;-78
2023/12/06 11:15:40;;;;;;;13.37;12.30;;;;;;;7.39;100.00;92142.31;5063990;28;20255;-77